createdAt,value
2023-05-04T00:02:04.326Z,2.85
2023-05-04T00:04:30.700Z,2.90
2023-05-04T00:06:57.034Z,2.35
2023-05-04T00:09:23.301Z,2.60
2023-05-04T00:11:49.615Z,2.40
2023-05-04T00:14:15.940Z,2.50
2023-05-04T00:16:42.222Z,2.30
2023-05-04T00:19:08.587Z,2.50
2023-05-04T00:21:34.887Z,2.58
2023-05-04T00:24:02.317Z,2.25
2023-05-04T00:26:28.679Z,2.38
2023-05-04T00:28:55.072Z,2.50
2023-05-04T00:31:21.433Z,2.55
2023-05-04T00:33:47.870Z,2.17
2023-05-04T00:36:14.138Z,2.47
2023-05-04T00:38:48.539Z,2.88
2023-05-04T00:41:14.965Z,2.58
2023-05-04T00:43:41.294Z,2.55
2023-05-04T00:46:08.010Z,2.63
2023-05-04T00:48:34.463Z,2.63
2023-05-04T00:51:00.985Z,2.67
2023-05-04T00:53:27.278Z,2.53
2023-05-04T00:55:53.708Z,2.63
2023-05-04T00:58:21.014Z,2.28
2023-05-04T01:00:47.687Z,2.25
2023-05-04T01:03:14.052Z,2.42
2023-05-04T01:05:43.540Z,2.53
2023-05-04T01:08:13.371Z,2.50
2023-05-04T01:10:49.567Z,2.60
2023-05-04T01:13:16.562Z,2.40
2023-05-04T01:15:43.147Z,2.25
2023-05-04T01:18:09.695Z,3.30
2023-05-04T01:20:36.232Z,2.50
2023-05-04T01:23:03.082Z,2.70
2023-05-04T01:25:34.110Z,2.50
2023-05-04T01:28:07.665Z,2.75
2023-05-04T01:30:43.422Z,3.13
2023-05-04T01:33:10.184Z,2.60
2023-05-04T01:35:37.075Z,2.92
2023-05-04T01:38:03.601Z,2.97
2023-05-04T01:40:29.907Z,2.80
2023-05-04T01:42:56.499Z,2.95
2023-05-04T01:45:22.919Z,2.97
2023-05-04T01:47:49.602Z,2.63
2023-05-04T01:50:16.051Z,2.90
2023-05-04T01:52:42.325Z,2.70
2023-05-04T01:55:08.878Z,2.95
2023-05-04T01:57:35.510Z,2.88
2023-05-04T02:00:02.110Z,2.70
2023-05-04T02:02:28.525Z,2.63
2023-05-04T02:04:54.813Z,2.95
2023-05-04T02:07:21.141Z,2.97
2023-05-04T02:09:47.430Z,2.97
2023-05-04T02:12:13.717Z,2.38
2023-05-04T02:14:40.023Z,2.83
2023-05-04T02:17:06.786Z,2.75
2023-05-04T02:19:33.054Z,2.55
2023-05-04T02:21:59.325Z,2.80
2023-05-04T02:24:25.596Z,2.90
2023-05-04T02:26:51.899Z,2.50
2023-05-04T02:29:18.223Z,2.70
2023-05-04T02:31:44.547Z,2.85
2023-05-04T02:34:10.899Z,2.67
2023-05-04T02:36:37.224Z,2.60
2023-05-04T02:39:03.573Z,2.60
2023-05-04T02:41:29.859Z,2.72
2023-05-04T02:43:56.105Z,2.88
2023-05-04T02:46:24.093Z,2.80
2023-05-04T02:48:50.619Z,2.45
2023-05-04T02:51:18.092Z,3.47
2023-05-04T02:53:44.361Z,2.78
2023-05-04T02:56:10.722Z,2.80
2023-05-04T02:58:37.044Z,3.05
2023-05-04T03:01:03.491Z,3.10
2023-05-04T03:03:29.794Z,2.50
2023-05-04T03:05:56.109Z,2.90
2023-05-04T03:08:22.398Z,2.60
2023-05-04T03:10:48.631Z,3.35
2023-05-04T03:13:14.953Z,2.85
2023-05-04T03:15:41.294Z,2.70
2023-05-04T03:18:07.745Z,2.92
2023-05-04T03:20:34.161Z,2.90
2023-05-04T03:23:00.507Z,2.83
2023-05-04T03:25:26.996Z,2.92
2023-05-04T03:27:53.366Z,2.65
2023-05-04T03:30:19.812Z,2.80
2023-05-04T03:32:46.279Z,2.53
2023-05-04T03:35:13.204Z,2.80
2023-05-04T03:37:39.539Z,2.67
2023-05-04T03:40:06.463Z,3.03
2023-05-04T03:42:32.968Z,2.80
2023-05-04T03:44:59.673Z,2.67
2023-05-04T03:47:27.073Z,2.80
2023-05-04T03:49:53.406Z,2.25
2023-05-04T03:52:19.730Z,2.50
2023-05-04T03:54:46.003Z,2.38
2023-05-04T03:57:12.307Z,2.72
2023-05-04T03:59:38.640Z,2.63
2023-05-04T04:02:05.036Z,2.35
2023-05-04T04:04:31.335Z,2.22
2023-05-04T04:06:57.660Z,2.60
2023-05-04T04:09:24.007Z,2.85
2023-05-04T04:11:50.236Z,2.42
2023-05-04T04:14:16.546Z,2.72
2023-05-04T04:16:43.075Z,3.17
2023-05-04T04:19:09.735Z,2.20
2023-05-04T04:21:36.129Z,2.58
2023-05-04T04:24:02.457Z,2.47
2023-05-04T04:26:28.764Z,2.50
2023-05-04T04:28:55.101Z,2.90
2023-05-04T04:31:21.513Z,2.45
2023-05-04T04:33:49.907Z,2.58
2023-05-04T04:36:19.536Z,2.47
2023-05-04T04:38:46.429Z,2.40
2023-05-04T04:41:12.815Z,2.40
2023-05-04T04:43:39.497Z,2.20
2023-05-04T04:46:05.987Z,2.90
2023-05-04T04:48:32.432Z,2.88
2023-05-04T04:50:58.985Z,2.38
2023-05-04T04:53:25.250Z,2.60
2023-05-04T04:55:52.216Z,2.70
2023-05-04T04:58:18.536Z,2.50
2023-05-04T05:00:45.400Z,2.50
2023-05-04T05:03:11.916Z,2.63
2023-05-04T05:05:38.253Z,2.85
2023-05-04T05:08:04.631Z,2.72
2023-05-04T05:10:31.016Z,2.58
2023-05-04T05:12:57.358Z,2.60
2023-05-04T05:15:23.793Z,2.55
2023-05-04T05:17:50.185Z,2.83
2023-05-04T05:20:16.565Z,2.40
2023-05-04T05:22:43.100Z,2.30
2023-05-04T05:25:09.676Z,2.70
2023-05-04T05:27:36.660Z,2.25
2023-05-04T05:30:03.899Z,2.22
2023-05-04T05:32:30.599Z,2.13
2023-05-04T05:34:57.395Z,2.20
2023-05-04T05:37:23.727Z,2.60
2023-05-04T05:39:50.089Z,2.38
2023-05-04T05:42:16.398Z,2.28
2023-05-04T05:44:42.723Z,2.20
2023-05-04T05:47:10.801Z,2.50
2023-05-04T05:49:37.074Z,2.35
2023-05-04T05:52:03.470Z,2.88
2023-05-04T05:54:30.801Z,2.42
2023-05-04T05:56:57.208Z,2.70
2023-05-04T05:59:23.526Z,2.15
2023-05-04T06:01:49.889Z,2.58
2023-05-04T06:04:16.356Z,2.20
2023-05-04T06:06:45.126Z,2.33
2023-05-04T06:09:12.403Z,2.05
2023-05-04T06:11:38.717Z,2.22
2023-05-04T06:14:04.948Z,2.30
2023-05-04T06:16:31.337Z,2.15
2023-05-04T06:18:57.639Z,2.10
2023-05-04T06:21:23.951Z,2.15
2023-05-04T06:23:50.216Z,2.35
2023-05-04T06:26:16.566Z,2.17
2023-05-04T06:28:42.873Z,1.92
2023-05-04T06:31:09.243Z,2.20
2023-05-04T06:33:35.570Z,1.90
2023-05-04T06:36:01.915Z,1.80
2023-05-04T06:38:28.238Z,2.10
2023-05-04T06:40:54.547Z,2.00
2023-05-04T06:43:20.910Z,1.90
2023-05-04T06:45:50.445Z,1.70
2023-05-04T06:48:17.122Z,1.98
2023-05-04T06:50:43.420Z,1.90
2023-05-04T06:53:10.468Z,2.10
2023-05-04T06:55:37.195Z,1.90
2023-05-04T06:58:03.768Z,2.15
2023-05-04T07:00:30.134Z,2.20
2023-05-04T07:02:56.472Z,2.08
2023-05-04T07:05:23.028Z,2.03
2023-05-04T07:07:51.266Z,2.08
2023-05-04T07:10:19.389Z,1.60
2023-05-04T07:12:45.834Z,1.80
2023-05-04T07:15:12.313Z,1.73
2023-05-04T07:17:38.908Z,2.22
2023-05-04T07:20:06.161Z,1.73
2023-05-04T07:22:33.212Z,2.00
2023-05-04T07:25:00.080Z,1.95
2023-05-04T07:27:26.552Z,2.10
2023-05-04T07:29:52.867Z,1.90
2023-05-04T07:32:19.697Z,1.85
2023-05-04T07:34:46.687Z,1.65
2023-05-04T07:37:13.232Z,1.60
2023-05-04T07:39:39.691Z,1.50
2023-05-04T07:42:07.008Z,1.73
2023-05-04T07:44:33.617Z,1.65
2023-05-04T07:46:59.937Z,1.70
2023-05-04T07:49:26.775Z,1.63
2023-05-04T07:51:53.225Z,1.40
2023-05-04T07:54:20.808Z,1.52
2023-05-04T07:56:49.009Z,1.75
2023-05-04T07:59:17.561Z,1.83
2023-05-04T08:01:44.260Z,1.70
2023-05-04T08:04:10.777Z,1.50
2023-05-04T08:06:39.399Z,2.13
2023-05-04T08:09:06.321Z,1.40
2023-05-04T08:11:35.440Z,1.55
2023-05-04T08:14:01.786Z,1.50
2023-05-04T08:16:29.253Z,1.50
2023-05-04T08:18:56.341Z,1.30
2023-05-04T08:21:22.880Z,1.52
2023-05-04T08:23:49.733Z,1.67
2023-05-04T08:26:16.022Z,1.92
2023-05-04T08:28:42.588Z,1.55
2023-05-04T08:31:09.075Z,1.60
2023-05-04T08:33:35.582Z,1.80
2023-05-04T08:36:02.992Z,1.55
2023-05-04T08:38:29.874Z,1.60
2023-05-04T08:40:56.260Z,1.42
2023-05-04T08:43:22.593Z,1.55
2023-05-04T08:45:49.689Z,1.48
2023-05-04T08:48:16.151Z,1.60
2023-05-04T08:50:42.596Z,1.63
2023-05-04T08:53:13.717Z,1.50
2023-05-04T08:55:41.752Z,1.77
2023-05-04T08:58:10.295Z,1.77
2023-05-04T09:00:37.992Z,1.80
2023-05-04T09:03:04.996Z,1.70
2023-05-04T09:05:32.138Z,1.80
2023-05-04T09:07:58.592Z,1.60
2023-05-04T09:10:29.484Z,1.65
2023-05-04T09:12:56.148Z,1.55
2023-05-04T09:15:22.829Z,1.40
2023-05-04T09:17:58.800Z,1.67
2023-05-04T09:20:26.101Z,1.90
2023-05-04T09:23:07.221Z,1.73
2023-05-04T09:25:34.456Z,1.70
2023-05-04T09:28:00.932Z,1.60
2023-05-04T09:30:27.733Z,1.83
2023-05-04T09:32:54.171Z,2.03
2023-05-04T09:35:33.086Z,1.77
2023-05-04T09:38:00.741Z,1.67
2023-05-04T09:40:35.514Z,1.80
2023-05-04T09:43:02.111Z,1.83
2023-05-04T09:45:41.565Z,1.90
2023-05-04T09:48:19.029Z,1.70
2023-05-04T09:50:52.665Z,1.65
2023-05-04T09:53:24.540Z,1.83
2023-05-04T09:56:02.548Z,1.70
2023-05-04T09:58:30.611Z,1.90
2023-05-04T10:00:57.314Z,1.88
2023-05-04T10:03:24.461Z,1.92
2023-05-04T10:05:51.458Z,2.20
2023-05-04T10:08:18.679Z,1.67
2023-05-04T10:10:45.412Z,1.92
2023-05-04T10:13:11.910Z,1.58
2023-05-04T10:15:42.219Z,1.67
2023-05-04T10:18:27.369Z,1.90
2023-05-04T10:21:02.899Z,2.17
2023-05-04T10:23:46.574Z,1.70
2023-05-04T10:26:23.217Z,2.00
2023-05-04T10:28:49.448Z,1.70
2023-05-04T10:31:15.942Z,1.60
2023-05-04T10:33:43.270Z,1.80
2023-05-04T10:36:10.066Z,2.03
2023-05-04T10:38:37.044Z,1.90
2023-05-04T10:41:19.395Z,1.83
2023-05-04T10:43:50.933Z,1.90
2023-05-04T10:46:21.360Z,1.52
2023-05-04T10:48:49.857Z,1.80
2023-05-04T10:51:24.302Z,2.00
2023-05-04T10:53:51.616Z,1.52
2023-05-04T10:56:21.857Z,1.80
2023-05-04T10:58:48.229Z,1.80
2023-05-04T11:01:14.791Z,1.83
2023-05-04T11:03:41.449Z,2.20
2023-05-04T11:06:24.204Z,2.05
2023-05-04T11:09:01.095Z,2.08
2023-05-04T11:11:27.629Z,2.17
2023-05-04T11:13:54.666Z,1.95
2023-05-04T11:16:24.453Z,2.08
2023-05-04T11:18:50.823Z,2.03
2023-05-04T11:21:27.225Z,2.17
2023-05-04T11:23:54.552Z,1.90
2023-05-04T11:26:20.913Z,1.80
2023-05-04T11:28:47.243Z,1.90
2023-05-04T11:31:18.199Z,1.50
2023-05-04T11:33:48.296Z,2.20
2023-05-04T11:36:14.639Z,2.30
2023-05-04T11:38:41.226Z,2.35
2023-05-04T11:41:08.234Z,2.25
2023-05-04T11:43:34.859Z,2.42
2023-05-04T11:46:02.633Z,2.78
2023-05-04T11:48:29.685Z,2.50
2023-05-04T11:50:56.230Z,2.80
2023-05-04T11:53:23.148Z,2.75
2023-05-04T11:55:49.617Z,2.78
2023-05-04T11:58:23.130Z,3.28
2023-05-04T12:00:55.860Z,2.88
2023-05-04T12:03:32.542Z,3.17
2023-05-04T12:06:10.548Z,2.70
2023-05-04T12:08:42.119Z,2.70
2023-05-04T12:11:21.834Z,2.65
2023-05-04T12:13:49.028Z,2.53
2023-05-04T12:16:16.220Z,2.80
2023-05-04T12:18:44.223Z,2.65
2023-05-04T12:21:14.831Z,2.70
2023-05-04T12:23:41.785Z,2.42
2023-05-04T12:26:08.838Z,2.47
2023-05-04T12:28:35.962Z,2.38
2023-05-04T12:31:03.152Z,3.10
2023-05-04T12:33:29.523Z,2.28
2023-05-04T12:35:55.841Z,2.33
2023-05-04T12:38:22.366Z,2.20
2023-05-04T12:40:48.847Z,2.45
2023-05-04T12:43:15.175Z,2.33
2023-05-04T12:45:41.760Z,2.55
2023-05-04T12:48:08.200Z,2.50
2023-05-04T12:50:34.564Z,2.50
2023-05-04T12:53:04.055Z,2.20
2023-05-04T12:55:31.539Z,2.63
2023-05-04T12:57:58.157Z,2.72
2023-05-04T13:00:24.414Z,2.40
2023-05-04T13:02:50.732Z,2.50
2023-05-04T13:05:18.390Z,2.60
2023-05-04T13:07:45.047Z,2.50
2023-05-04T13:10:11.326Z,2.50
2023-05-04T13:12:38.834Z,2.40
2023-05-04T13:15:05.493Z,2.30
2023-05-04T13:17:33.806Z,2.63
2023-05-04T13:20:01.568Z,2.42
2023-05-04T13:22:31.023Z,2.42
2023-05-04T13:24:57.392Z,2.53
2023-05-04T13:27:23.739Z,2.58
2023-05-04T13:29:50.011Z,2.70
2023-05-04T13:32:16.328Z,2.67
2023-05-04T13:34:42.871Z,2.40
2023-05-04T13:37:09.752Z,2.67
2023-05-04T13:39:40.932Z,2.70
2023-05-04T13:42:07.626Z,2.25
2023-05-04T13:44:34.371Z,2.38
2023-05-04T13:47:01.560Z,2.42
2023-05-04T13:49:27.875Z,2.38
2023-05-04T13:51:57.270Z,2.50
2023-05-04T13:54:23.617Z,2.30
2023-05-04T13:56:52.855Z,2.50
2023-05-04T13:59:19.273Z,2.42
2023-05-04T14:01:46.100Z,2.33
2023-05-04T14:04:12.588Z,2.47
2023-05-04T14:06:38.945Z,2.70
2023-05-04T14:09:05.314Z,2.08
2023-05-04T14:11:31.857Z,2.90
2023-05-04T14:13:58.424Z,2.13
2023-05-04T14:16:24.828Z,2.30
2023-05-04T14:18:51.198Z,2.28
2023-05-04T14:21:17.622Z,2.85
2023-05-04T14:23:46.201Z,2.33
2023-05-04T14:26:12.541Z,2.50
2023-05-04T14:28:39.182Z,2.50
2023-05-04T14:31:11.629Z,2.40
2023-05-04T14:33:40.371Z,2.55
2023-05-04T14:36:07.195Z,2.25
2023-05-04T14:38:35.399Z,2.42
2023-05-04T14:41:04.739Z,2.42
2023-05-04T14:43:31.177Z,2.17
2023-05-04T14:45:58.833Z,2.55
2023-05-04T14:48:26.476Z,2.60
2023-05-04T14:50:53.544Z,2.72
2023-05-04T14:53:21.559Z,2.10
2023-05-04T14:55:48.058Z,2.10
2023-05-04T14:58:15.492Z,2.65
2023-05-04T15:00:42.107Z,2.38
2023-05-04T15:03:09.220Z,2.55
2023-05-04T15:05:35.758Z,2.45
2023-05-04T15:08:02.240Z,2.58
2023-05-04T15:10:28.546Z,2.50
2023-05-04T15:12:55.015Z,2.70
2023-05-04T15:15:21.549Z,2.53
2023-05-04T15:17:48.242Z,2.78
2023-05-04T15:20:17.709Z,2.45
2023-05-04T15:22:47.081Z,2.17
2023-05-04T15:25:13.574Z,2.45
2023-05-04T15:27:40.033Z,2.50
2023-05-04T15:30:07.575Z,2.28
2023-05-04T15:32:34.173Z,2.60
2023-05-04T15:35:05.512Z,2.33
2023-05-04T15:37:32.614Z,2.40
2023-05-04T15:40:01.717Z,2.17
2023-05-04T15:42:28.914Z,2.30
2023-05-04T15:44:55.223Z,2.28
2023-05-04T15:47:21.493Z,2.55
2023-05-04T15:49:48.289Z,2.33
2023-05-04T15:52:14.604Z,2.30
2023-05-04T15:54:41.005Z,2.10
2023-05-04T15:57:07.773Z,2.10
2023-05-04T15:59:34.032Z,2.30
2023-05-04T16:02:00.677Z,2.28
2023-05-04T16:04:27.891Z,2.33
2023-05-04T16:06:54.229Z,2.28
2023-05-04T16:09:21.039Z,2.17
2023-05-04T16:11:47.502Z,2.20
2023-05-04T16:14:14.279Z,2.28
2023-05-04T16:16:41.351Z,2.33
2023-05-04T16:19:11.438Z,2.40
2023-05-04T16:21:39.301Z,2.35
2023-05-04T16:24:08.173Z,2.30
2023-05-04T16:26:34.523Z,2.25
2023-05-04T16:29:01.521Z,2.17
2023-05-04T16:31:28.215Z,2.53
2023-05-04T16:33:54.715Z,2.30
2023-05-04T16:36:21.013Z,1.98
2023-05-04T16:38:48.565Z,2.10
2023-05-04T16:41:14.846Z,2.38
2023-05-04T16:43:41.131Z,2.60
2023-05-04T16:46:07.724Z,2.50
2023-05-04T16:48:34.172Z,2.65
2023-05-04T16:51:00.789Z,2.20
2023-05-04T16:53:27.110Z,2.17
2023-05-04T16:55:53.501Z,2.15
2023-05-04T16:58:19.799Z,2.25
2023-05-04T17:00:46.279Z,2.10
2023-05-04T17:03:12.700Z,1.95
2023-05-04T17:05:39.105Z,2.30
2023-05-04T17:08:05.638Z,2.20
2023-05-04T17:10:32.140Z,1.85
2023-05-04T17:12:59.746Z,2.22
2023-05-04T17:15:27.994Z,2.33
2023-05-04T17:17:55.829Z,2.40
2023-05-04T17:20:23.881Z,2.53
2023-05-04T17:22:51.728Z,1.92
2023-05-04T17:25:18.032Z,2.28
2023-05-04T17:27:44.396Z,2.45
2023-05-04T17:30:11.366Z,2.72
2023-05-04T17:32:38.216Z,3.03
2023-05-04T17:35:15.983Z,3.97
2023-05-04T17:37:50.069Z,3.10
2023-05-04T17:40:16.381Z,2.45
2023-05-04T17:42:42.673Z,3.03
2023-05-04T17:45:09.076Z,3.22
2023-05-04T17:47:35.628Z,2.40
2023-05-04T17:50:02.116Z,3.30
2023-05-04T17:52:28.458Z,2.92
2023-05-04T17:54:54.790Z,3.17
2023-05-04T17:57:21.041Z,2.75
2023-05-04T17:59:47.461Z,2.47
2023-05-04T18:02:13.721Z,2.78
2023-05-04T18:04:40.057Z,3.05
2023-05-04T18:07:06.375Z,2.95
2023-05-04T18:09:32.758Z,3.35
2023-05-04T18:11:59.160Z,2.72
2023-05-04T18:14:25.412Z,2.85
2023-05-04T18:16:51.946Z,2.83
2023-05-04T18:19:23.813Z,2.88
2023-05-04T18:21:50.576Z,2.67
2023-05-04T18:24:17.073Z,2.75
2023-05-04T18:26:44.403Z,2.92
2023-05-04T18:29:18.447Z,2.85
2023-05-04T18:31:45.573Z,2.88
2023-05-04T18:34:12.187Z,2.95
2023-05-04T18:36:38.598Z,2.63
2023-05-04T18:39:09.120Z,2.70
2023-05-04T18:41:35.589Z,2.95
2023-05-04T18:44:01.963Z,2.83
2023-05-04T18:46:28.505Z,2.70
2023-05-04T18:48:56.370Z,2.92
2023-05-04T18:51:22.744Z,2.97
2023-05-04T18:53:50.052Z,2.30
2023-05-04T18:56:16.481Z,2.53
2023-05-04T18:58:42.798Z,2.50
2023-05-04T19:01:09.169Z,2.35
2023-05-04T19:03:38.450Z,2.30
2023-05-04T19:06:04.966Z,2.85
2023-05-04T19:08:31.458Z,2.33
2023-05-04T19:11:02.935Z,2.65
2023-05-04T19:13:29.589Z,3.58
2023-05-04T19:15:55.941Z,3.45
2023-05-04T19:18:22.379Z,3.30
2023-05-04T19:20:48.708Z,3.05
2023-05-04T19:23:15.040Z,3.03
2023-05-04T19:25:41.363Z,3.97
2023-05-04T19:28:10.722Z,2.40
2023-05-04T19:30:37.368Z,3.05
2023-05-04T19:33:03.871Z,2.65
2023-05-04T19:35:30.289Z,2.55
2023-05-04T19:37:57.086Z,3.28
2023-05-04T19:40:23.367Z,3.10
2023-05-04T19:42:49.695Z,3.58
2023-05-04T19:45:16.034Z,3.05
2023-05-04T19:47:43.568Z,2.60
2023-05-04T19:50:14.070Z,3.15
2023-05-04T19:52:40.757Z,2.85
2023-05-04T19:55:07.401Z,3.22
2023-05-04T19:57:33.783Z,2.85
2023-05-04T20:00:00.716Z,2.95
2023-05-04T20:02:27.347Z,3.20
2023-05-04T20:04:53.869Z,2.40
2023-05-04T20:07:20.160Z,2.92
2023-05-04T20:09:46.520Z,2.83
2023-05-04T20:12:12.984Z,2.88
2023-05-04T20:14:41.019Z,3.30
2023-05-04T20:17:07.678Z,3.17
2023-05-04T20:19:34.040Z,3.05
2023-05-04T20:22:00.394Z,3.17
2023-05-04T20:24:26.741Z,2.83
2023-05-04T20:26:53.012Z,3.10
2023-05-04T20:29:19.647Z,3.08
2023-05-04T20:31:46.033Z,2.90
2023-05-04T20:34:12.371Z,3.22
2023-05-04T20:36:38.701Z,3.17
2023-05-04T20:39:06.838Z,3.20
2023-05-04T20:41:33.444Z,2.70
2023-05-04T20:44:00.006Z,3.22
2023-05-04T20:46:26.693Z,2.90
2023-05-04T20:48:53.349Z,2.70
2023-05-04T20:51:19.659Z,3.15
2023-05-04T20:53:45.950Z,3.20
2023-05-04T20:56:12.291Z,3.22
2023-05-04T20:58:38.658Z,2.42
2023-05-04T21:01:05.442Z,2.97
2023-05-04T21:03:32.130Z,2.70
2023-05-04T21:05:58.648Z,2.67
2023-05-04T21:08:25.117Z,2.30
2023-05-04T21:10:52.010Z,2.72
2023-05-04T21:13:19.191Z,2.47
2023-05-04T21:15:45.787Z,2.75
2023-05-04T21:18:12.173Z,2.47
2023-05-04T21:20:38.782Z,2.70
2023-05-04T21:23:05.344Z,2.88
2023-05-04T21:25:32.365Z,3.33
2023-05-04T21:27:58.783Z,2.47
2023-05-04T21:30:25.108Z,3.03
2023-05-04T21:32:51.740Z,2.78
2023-05-04T21:35:21.094Z,2.80
2023-05-04T21:37:47.775Z,2.75
2023-05-04T21:40:14.437Z,3.58
2023-05-04T21:42:40.776Z,2.67
2023-05-04T21:45:07.813Z,2.80
2023-05-04T21:47:34.318Z,3.03
2023-05-04T21:50:03.999Z,3.00
2023-05-04T21:52:30.607Z,3.13
2023-05-04T21:54:56.986Z,2.97
2023-05-04T21:57:25.289Z,3.47
2023-05-04T21:59:51.616Z,3.10
2023-05-04T22:02:18.010Z,3.08
2023-05-04T22:04:44.346Z,2.78
2023-05-04T22:07:10.779Z,2.80
2023-05-04T22:09:37.299Z,2.88
2023-05-04T22:12:03.675Z,2.90
2023-05-04T22:14:30.109Z,3.10
2023-05-04T22:16:56.469Z,3.05
2023-05-04T22:19:22.900Z,3.33
2023-05-04T22:21:49.179Z,2.50
2023-05-04T22:24:16.123Z,2.70
2023-05-04T22:26:42.438Z,2.95
2023-05-04T22:29:08.716Z,3.15
2023-05-04T22:31:35.023Z,2.67
2023-05-04T22:34:01.297Z,3.15
2023-05-04T22:36:27.620Z,3.00
2023-05-04T22:38:53.963Z,2.65
2023-05-04T22:41:21.062Z,2.78
2023-05-04T22:43:47.346Z,2.70
2023-05-04T22:46:14.353Z,3.35
2023-05-04T22:48:40.712Z,3.03
2023-05-04T22:51:08.257Z,2.80
2023-05-04T22:53:34.595Z,2.88
2023-05-04T22:56:00.886Z,3.30
2023-05-04T22:58:27.235Z,3.30
2023-05-04T23:00:53.562Z,2.72
2023-05-04T23:03:19.987Z,3.00
2023-05-04T23:05:46.304Z,3.17
2023-05-04T23:08:12.776Z,3.20
2023-05-04T23:10:39.038Z,3.05
2023-05-04T23:13:05.425Z,3.30
2023-05-04T23:15:32.719Z,2.83
2023-05-04T23:17:59.020Z,3.22
2023-05-04T23:20:25.708Z,2.80
2023-05-04T23:22:52.133Z,3.25
2023-05-04T23:25:18.574Z,2.92
2023-05-04T23:27:44.957Z,3.00
2023-05-04T23:30:11.341Z,2.90
2023-05-04T23:32:37.779Z,3.17
2023-05-04T23:35:04.410Z,2.97
2023-05-04T23:37:33.769Z,3.00
2023-05-04T23:40:00.289Z,2.50
2023-05-04T23:42:26.628Z,3.03
2023-05-04T23:44:55.976Z,2.88
2023-05-04T23:47:22.665Z,3.40
2023-05-04T23:49:49.403Z,2.80
2023-05-04T23:52:15.709Z,3.10
2023-05-04T23:54:42.014Z,3.15
2023-05-04T23:57:08.818Z,3.08
2023-05-04T23:59:35.242Z,2.53
